Bookmark and Share
Track history (hours):
 

MSC Ines

Last reported at 2014-Apr-25 00:17 UTC. Time now 2014-Apr-25 06:26 UTC.
Position N 33°33' E 127°35'.

Length 349 m; draft 11.3 m.

Type: Ship (hazmat cat A). MMSI: 356112000.

NotesDate/timePositionNaut miles runAvg speedWind from/ knotsBaromVisibWave heightAir tempDewpointWater temp
2014-Apr-25 00:17N 33°33' E 127°35'29817.6
2014-Apr-24 07:23N 30°33' E 122°54'1617.9
2014-Apr-24 06:29N 30°32' E 122°36'1717.4
2014-Apr-24 05:30N 30°33' E 122°16'1211.1
2014-Apr-24 04:28N 30°37' E 122°04'0 0.0
2014-Apr-24 03:32N 30°37' E 122°04'0 0.0
2014-Apr-24 02:31N 30°37' E 122°04'0 0.0
2014-Apr-24 01:32N 30°37' E 122°04'0 0.0
2014-Apr-24 00:33N 30°37' E 122°04'0 0.0
2014-Apr-23 23:29N 30°37' E 122°04'0 0.0
2014-Apr-23 22:33N 30°37' E 122°04'0 0.0
2014-Apr-23 21:33N 30°37' E 122°04'0 0.0
2014-Apr-23 20:33N 30°37' E 122°04'0 0.0
2014-Apr-23 19:33N 30°37' E 122°04'0 0.0
2014-Apr-23 18:33N 30°37' E 122°04'0 0.0
2014-Apr-23 17:25N 30°37' E 122°04'0 0.0
2014-Apr-23 16:33N 30°37' E 122°04'0 0.0
2014-Apr-23 15:33N 30°37' E 122°04'5 4.8
2014-Apr-23 14:33N 30°35' E 122°08'9 9.2
2014-Apr-23 13:33N 30°33' E 122°19'6 6.1
2014-Apr-23 12:31N 30°32' E 122°26'12 2.8
2014-Apr-23 08:09N 30°27' E 122°39'0 0.0
2014-Apr-23 01:21N 30°27' E 122°40'0 0.0
2014-Apr-23 00:33N 30°27' E 122°40'0 0.0
2014-Apr-22 23:33N 30°27' E 122°40'0 0.1
2014-Apr-22 22:33N 30°27' E 122°40'0 0.1
2014-Apr-22 18:09N 30°27' E 122°39'0 0.1
2014-Apr-22 17:21N 30°27' E 122°39'0 0.1
2014-Apr-22 16:27N 30°27' E 122°39'  
2014-Apr-19 12:13N 22°38' E 116°50'152 5.1
2014-Apr-18 06:33N 22°16' E 114°07'7 6.1
2014-Apr-18 05:21N 22°08' E 114°09'2 2.1
2014-Apr-18 04:28N 22°10' E 114°08'0 0.1
2014-Apr-18 03:22N 22°10' E 114°08'0 0.1
2014-Apr-18 02:28N 22°10' E 114°08'0 0.0
2014-Apr-18 01:16N 22°10' E 114°08'0 0.0
2014-Apr-18 00:10N 22°10' E 114°08'0 0.2
2014-Apr-17 23:16N 22°10' E 114°08'0 0.1
2014-Apr-17 22:04N 22°10' E 114°08'0 0.1
2014-Apr-17 21:28N 22°09' E 114°08'3 3.0
2014-Apr-17 20:31N 22°09' E 114°11'7 7.4
2014-Apr-17 19:31N 22°15' E 114°07'1210.6
2014-Apr-17 18:26N 22°21' E 113°56'7 8.5
2014-Apr-17 17:33N 22°28' E 113°53'0 0.2
2014-Apr-17 16:30N 22°27' E 113°53'0 0.0
2014-Apr-17 06:29N 22°27' E 113°53'0 0.0
2014-Apr-17 05:29N 22°27' E 113°53'0 0.0
2014-Apr-17 04:29N 22°27' E 113°53'0 0.0
2014-Apr-17 03:23N 22°27' E 113°53'0 0.0
2014-Apr-17 02:29N 22°27' E 113°53'0 0.0
2014-Apr-17 01:29N 22°27' E 113°53'0 0.0
2014-Apr-17 00:29N 22°27' E 113°53'0 0.0
2014-Apr-16 23:29N 22°27' E 113°53'0 0.2
2014-Apr-16 22:34N 22°27' E 113°53'8 7.7
2014-Apr-16 21:33N 22°21' E 113°57'11 9.8
2014-Apr-16 20:29N 22°16' E 114°07'2110.6
2014-Apr-16 18:30N 22°08' E 114°28'14617.3
2014-Apr-16 10:06N 22°48' E 116°60'1018.4
2014-Apr-16 09:32N 22°54' E 117°09'1818.3
2014-Apr-16 08:33N 23°05' E 117°25'1818.1
2014-Apr-16 07:33N 23°16' E 117°40'1919.4
2014-Apr-16 06:33N 23°29' E 117°55'1919.0
2014-Apr-16 05:33N 23°42' E 118°11'1919.0
2014-Apr-16 04:33N 23°51' E 118°29'1918.7
2014-Apr-16 03:32N 24°01' E 118°47'2318.6
2014-Apr-16 02:19N 24°13' E 119°08'1618.4
2014-Apr-16 01:28N 24°21' E 119°23'  

Dump ship's entire track history

sailing weather and tide predictions

MSC Ines — 3EFZ3 — position and weather